Liberty, Maine
Current Conditions -  °F | °C
As of 5:55 AM on Friday 24 Oct 2014 (Local Time) from KWVL Reporting Station
Overcast Overcast  
Wind Chill: 41°   Ceiling: 1300
Heat Index: 46°   Visibility: 9mi
Dew Point: 41°   Wind: 13mph
Humidity: 81%   Direction: 360°N
Pressure: 29.67"   Gusts: NA
Location:  44.39°N, 69.3°W
Report Text: KWVL 240955Z 36011KT 9SM OVC013 08/05 A2967 RMK AO1
Loading
Personal Weather Stations






























Interactive Weather Map
Tropical Storm Tracking
New forecast layout! Learn more

10-Day Weather Forecast

Advertisements
Track Severe Weather on mobile